createdAt,value
2019-01-31T00:05:27.160Z,39.80
2019-01-31T00:11:09.281Z,39.93
2019-01-31T00:16:53.349Z,37.33
2019-01-31T00:22:50.268Z,39.73
2019-01-31T00:28:12.902Z,40.50
2019-01-31T00:33:27.880Z,41.30
2019-01-31T00:38:56.812Z,44.20
2019-01-31T00:44:13.811Z,38.20
2019-01-31T00:49:32.185Z,43.67
2019-01-31T00:55:07.433Z,42.43
2019-01-31T01:00:22.750Z,46.90
2019-01-31T01:06:03.953Z,37.87
2019-01-31T01:11:32.875Z,40.03
2019-01-31T01:16:52.547Z,43.20
2019-01-31T01:22:29.074Z,41.33
2019-01-31T01:28:04.388Z,41.77
2019-01-31T01:33:39.232Z,39.13
2019-01-31T01:39:18.884Z,45.53
2019-01-31T01:44:45.627Z,42.40
2019-01-31T01:50:02.851Z,40.97
2019-01-31T01:55:31.236Z,41.93
2019-01-31T02:01:34.899Z,42.60
2019-01-31T02:06:56.925Z,45.03
2019-01-31T02:12:35.769Z,42.20
2019-01-31T02:17:45.118Z,40.50
2019-01-31T02:23:15.059Z,46.50
2019-01-31T02:28:45.840Z,44.10
2019-01-31T02:34:11.457Z,40.97
2019-01-31T02:39:45.891Z,37.70
2019-01-31T02:45:27.225Z,40.80
2019-01-31T02:50:42.841Z,40.83
2019-01-31T02:56:42.542Z,43.37
2019-01-31T03:02:02.586Z,42.80
2019-01-31T03:07:20.485Z,43.83
2019-01-31T03:12:47.874Z,43.73
2019-01-31T03:18:00.903Z,41.60
2019-01-31T03:23:35.216Z,43.97
2019-01-31T03:29:11.757Z,42.87
2019-01-31T03:34:43.183Z,45.47
2019-01-31T03:40:36.712Z,44.97
2019-01-31T03:46:36.165Z,49.67
2019-01-31T03:52:27.002Z,45.70
2019-01-31T03:58:14.411Z,52.83
2019-01-31T04:03:32.509Z,47.10
2019-01-31T04:08:36.088Z,46.77
2019-01-31T04:13:39.833Z,46.97
2019-01-31T04:18:43.512Z,48.33
2019-01-31T04:23:47.209Z,46.33
2019-01-31T04:28:50.888Z,46.83
2019-01-31T04:33:54.922Z,47.70
2019-01-31T04:38:58.722Z,47.50
2019-01-31T04:44:02.413Z,48.87
2019-01-31T04:49:06.137Z,49.40
2019-01-31T04:54:10.056Z,45.13
2019-01-31T04:59:13.720Z,47.90
2019-01-31T05:04:17.397Z,52.30
2019-01-31T05:09:21.207Z,53.90
2019-01-31T05:14:25.218Z,49.60
2019-01-31T05:19:28.912Z,49.53
2019-01-31T05:24:32.576Z,50.03
2019-01-31T05:29:36.552Z,55.57
2019-01-31T05:34:40.551Z,56.67
2019-01-31T05:39:44.271Z,54.93
2019-01-31T05:44:48.201Z,53.07
2019-01-31T05:49:51.890Z,53.13
2019-01-31T05:54:55.819Z,55.63
2019-01-31T05:59:59.516Z,58.57
2019-01-31T06:05:03.509Z,52.70
2019-01-31T06:10:08.522Z,61.13
2019-01-31T06:15:14.110Z,54.60
2019-01-31T06:20:21.059Z,54.23
2019-01-31T06:25:24.841Z,55.53
2019-01-31T06:30:28.587Z,55.23
2019-01-31T06:35:32.877Z,58.17
2019-01-31T06:40:37.047Z,53.97
2019-01-31T06:45:40.715Z,54.33
2019-01-31T06:50:44.392Z,57.13
2019-01-31T06:55:48.390Z,56.27
2019-01-31T07:00:52.079Z,48.63
2019-01-31T07:05:56.356Z,48.67
2019-01-31T07:11:00.033Z,50.13
2019-01-31T07:16:04.159Z,57.73
2019-01-31T07:21:07.905Z,54.13
2019-01-31T07:26:11.617Z,59.63
2019-01-31T07:31:15.396Z,58.17
2019-01-31T07:36:19.149Z,53.33
2019-01-31T07:41:22.808Z,50.03
2019-01-31T07:46:26.498Z,53.37
2019-01-31T07:51:30.172Z,48.00
2019-01-31T07:56:33.872Z,57.33
2019-01-31T08:01:40.804Z,50.53
2019-01-31T08:06:43.513Z,46.37
2019-01-31T08:11:52.655Z,46.13
2019-01-31T08:16:53.009Z,45.33
2019-01-31T08:21:56.684Z,50.93
2019-01-31T08:27:00.449Z,51.47
2019-01-31T08:32:04.193Z,52.73
2019-01-31T08:37:07.955Z,49.43
2019-01-31T08:42:11.683Z,47.27
2019-01-31T08:47:15.887Z,51.13
2019-01-31T08:52:19.579Z,46.43
2019-01-31T08:57:23.345Z,44.37
2019-01-31T09:02:27.030Z,43.70
2019-01-31T09:07:30.729Z,50.40
2019-01-31T09:12:34.496Z,42.57
2019-01-31T09:17:38.266Z,41.73
2019-01-31T09:22:50.716Z,39.77
2019-01-31T09:28:15.304Z,42.83
2019-01-31T09:33:39.609Z,41.73
2019-01-31T09:39:19.317Z,38.73
2019-01-31T09:45:00.350Z,42.53
2019-01-31T09:50:19.462Z,35.83
2019-01-31T09:56:13.927Z,41.53
2019-01-31T10:01:57.233Z,38.63
2019-01-31T10:08:00.594Z,37.73
2019-01-31T10:13:25.164Z,37.53
2019-01-31T10:18:41.192Z,35.47
2019-01-31T10:24:27.490Z,37.63
2019-01-31T10:30:07.846Z,34.20
2019-01-31T10:35:32.911Z,33.23
2019-01-31T10:41:08.808Z,32.57
2019-01-31T10:46:50.635Z,31.23
2019-01-31T10:52:27.302Z,30.43
2019-01-31T10:58:08.655Z,32.47
2019-01-31T11:03:34.265Z,29.47
2019-01-31T11:09:14.152Z,28.50
2019-01-31T11:14:44.996Z,31.93
2019-01-31T11:19:58.129Z,33.30
2019-01-31T11:25:18.836Z,25.83
2019-01-31T11:30:51.645Z,28.23
2019-01-31T11:36:11.547Z,30.10
2019-01-31T11:41:47.277Z,26.63
2019-01-31T11:47:07.386Z,19.73
2019-01-31T11:52:50.631Z,22.33
2019-01-31T11:58:21.526Z,22.13
2019-01-31T12:03:25.336Z,24.00
2019-01-31T12:08:29.311Z,22.27
2019-01-31T12:13:33.319Z,17.20
2019-01-31T12:18:37.163Z,22.47
2019-01-31T12:23:40.927Z,19.90
2019-01-31T12:28:44.698Z,18.53
2019-01-31T12:33:48.385Z,14.73
2019-01-31T12:38:54.867Z,21.87
2019-01-31T12:43:57.785Z,21.90
2019-01-31T12:49:01.481Z,20.77
2019-01-31T12:54:06.415Z,21.47
2019-01-31T12:59:10.396Z,21.77
2019-01-31T13:04:14.326Z,21.23
2019-01-31T13:09:18.051Z,25.87
2019-01-31T13:14:22.025Z,20.50
2019-01-31T13:19:25.808Z,25.53
2019-01-31T13:24:29.510Z,20.30
2019-01-31T13:29:33.192Z,23.13
2019-01-31T13:34:36.884Z,25.47
2019-01-31T13:39:40.634Z,21.80
2019-01-31T13:44:44.374Z,24.77
2019-01-31T13:49:48.120Z,21.70
2019-01-31T13:54:51.960Z,24.47
2019-01-31T13:59:55.663Z,20.33
2019-01-31T14:04:59.319Z,24.80
2019-01-31T14:10:03.335Z,20.00
2019-01-31T14:15:08.521Z,21.00
2019-01-31T14:20:15.425Z,22.90
2019-01-31T14:25:19.117Z,21.53
2019-01-31T14:30:28.549Z,19.27
2019-01-31T14:35:32.603Z,20.70
2019-01-31T14:40:36.644Z,21.40
2019-01-31T14:45:40.414Z,22.53
2019-01-31T14:50:44.157Z,28.37
2019-01-31T14:55:47.818Z,32.20
2019-01-31T15:00:51.747Z,33.03
2019-01-31T15:05:55.475Z,31.97
2019-01-31T15:10:59.476Z,40.57
2019-01-31T15:16:03.252Z,36.17
2019-01-31T15:21:07.344Z,36.27
2019-01-31T15:26:11.067Z,35.13
2019-01-31T15:31:14.726Z,35.10
2019-01-31T15:36:18.398Z,36.93
2019-01-31T15:41:22.118Z,33.40
2019-01-31T15:46:25.900Z,35.83
2019-01-31T15:51:29.577Z,31.23
2019-01-31T15:56:33.304Z,30.80
2019-01-31T16:01:37.162Z,30.10
2019-01-31T16:06:40.838Z,26.53
2019-01-31T16:11:44.648Z,32.20
2019-01-31T16:16:48.633Z,28.83
2019-01-31T16:21:52.834Z,31.33
2019-01-31T16:26:56.656Z,29.83
2019-01-31T16:32:00.717Z,30.13
2019-01-31T16:37:04.687Z,34.93
2019-01-31T16:42:08.430Z,29.13
2019-01-31T16:47:12.904Z,28.80
2019-01-31T16:52:16.624Z,29.07
2019-01-31T16:57:20.368Z,30.20
2019-01-31T17:02:24.393Z,27.47
2019-01-31T17:07:28.068Z,31.03
2019-01-31T17:12:31.858Z,32.73
2019-01-31T17:17:35.861Z,29.30
2019-01-31T17:22:39.535Z,27.10
2019-01-31T17:27:43.293Z,30.67
2019-01-31T17:32:46.950Z,29.50
2019-01-31T17:37:50.810Z,34.17
2019-01-31T17:42:54.501Z,40.60
2019-01-31T17:47:58.374Z,37.37
2019-01-31T17:53:02.041Z,32.93
2019-01-31T17:58:05.888Z,39.73
2019-01-31T18:03:09.829Z,38.67
2019-01-31T18:08:13.516Z,39.67
2019-01-31T18:13:17.247Z,39.13
2019-01-31T18:18:21.020Z,44.47
2019-01-31T18:23:24.783Z,43.87
2019-01-31T18:28:28.719Z,51.93
2019-01-31T18:33:32.700Z,43.47
2019-01-31T18:38:36.366Z,45.10
2019-01-31T18:43:40.031Z,49.47
2019-01-31T18:48:43.715Z,56.53
2019-01-31T18:53:48.525Z,55.73
2019-01-31T18:58:52.278Z,56.60
2019-01-31T19:03:56.299Z,52.53
2019-01-31T19:09:00.113Z,54.77
2019-01-31T19:14:04.292Z,55.37
2019-01-31T19:19:08.497Z,55.57
2019-01-31T19:24:12.513Z,57.77
2019-01-31T19:29:16.640Z,59.60
2019-01-31T19:34:20.688Z,58.33
2019-01-31T19:39:24.612Z,60.77
2019-01-31T19:44:28.949Z,60.27
2019-01-31T19:49:32.620Z,58.27
2019-01-31T19:54:36.720Z,63.43
2019-01-31T19:59:40.424Z,59.60
2019-01-31T20:04:44.160Z,53.43
2019-01-31T20:09:48.089Z,57.00
2019-01-31T20:14:52.233Z,63.53
2019-01-31T20:19:56.022Z,64.33
2019-01-31T20:24:59.782Z,62.03
2019-01-31T20:30:05.288Z,65.60
2019-01-31T20:35:10.548Z,62.97
2019-01-31T20:40:16.823Z,60.10
2019-01-31T20:45:20.647Z,58.90
2019-01-31T20:50:26.946Z,62.70
2019-01-31T20:55:30.677Z,57.57
2019-01-31T21:00:36.769Z,59.83
2019-01-31T21:05:41.906Z,64.37
2019-01-31T21:10:45.795Z,57.20
2019-01-31T21:15:49.593Z,59.70
2019-01-31T21:20:53.356Z,55.60
2019-01-31T21:25:57.068Z,62.03
2019-01-31T21:31:01.059Z,61.20
2019-01-31T21:36:04.891Z,55.83
2019-01-31T21:41:08.616Z,63.33
2019-01-31T21:46:12.555Z,61.13
2019-01-31T21:51:16.216Z,57.77
2019-01-31T21:56:19.887Z,61.73
2019-01-31T22:01:23.929Z,57.33
2019-01-31T22:06:27.583Z,60.00
2019-01-31T22:11:31.261Z,56.93
2019-01-31T22:16:35.284Z,63.30
2019-01-31T22:21:38.947Z,56.90
2019-01-31T22:26:42.620Z,57.20
2019-01-31T22:31:46.301Z,55.73
2019-01-31T22:36:50.583Z,56.33
2019-01-31T22:41:54.262Z,56.40
2019-01-31T22:46:58.225Z,48.10
2019-01-31T22:52:01.903Z,49.40
2019-01-31T22:57:05.653Z,48.77
2019-01-31T23:02:13.430Z,46.37
2019-01-31T23:07:17.419Z,46.50
2019-01-31T23:12:21.261Z,45.37
2019-01-31T23:17:24.977Z,47.60
2019-01-31T23:22:28.804Z,43.87
2019-01-31T23:27:32.582Z,45.87
2019-01-31T23:32:36.609Z,43.80
2019-01-31T23:37:40.315Z,47.43
2019-01-31T23:42:44.339Z,49.37
2019-01-31T23:47:49.207Z,44.13
2019-01-31T23:52:53.481Z,46.80
2019-01-31T23:57:57.265Z,47.90
